createdAt,value
2019-02-08T00:02:29.522Z,3.90
2019-02-08T00:05:00.775Z,3.90
2019-02-08T00:07:33.115Z,3.90
2019-02-08T00:10:05.028Z,3.90
2019-02-08T00:12:36.405Z,3.90
2019-02-08T00:15:09.173Z,3.90
2019-02-08T00:17:40.858Z,3.90
2019-02-08T00:20:12.862Z,4.00
2019-02-08T00:22:44.441Z,4.00
2019-02-08T00:25:16.748Z,4.00
2019-02-08T00:27:48.096Z,4.00
2019-02-08T00:30:21.721Z,4.10
2019-02-08T00:32:53.263Z,4.10
2019-02-08T00:35:24.973Z,4.10
2019-02-08T00:37:56.589Z,4.10
2019-02-08T00:40:27.970Z,4.20
2019-02-08T00:43:00.181Z,4.30
2019-02-08T00:45:31.448Z,4.30
2019-02-08T00:48:02.817Z,4.40
2019-02-08T00:50:34.109Z,4.40
2019-02-08T00:53:05.673Z,4.50
2019-02-08T00:55:36.962Z,4.50
2019-02-08T00:58:08.429Z,4.50
2019-02-08T01:00:41.437Z,4.50
2019-02-08T01:03:13.356Z,4.40
2019-02-08T01:05:44.642Z,4.40
2019-02-08T01:08:16.037Z,4.40
2019-02-08T01:10:47.386Z,4.30
2019-02-08T01:13:18.822Z,4.30
2019-02-08T01:15:50.042Z,4.30
2019-02-08T01:18:21.318Z,4.30
2019-02-08T01:20:52.680Z,4.30
2019-02-08T01:23:24.463Z,4.30
2019-02-08T01:25:55.723Z,4.30
2019-02-08T01:28:26.992Z,4.30
2019-02-08T01:30:59.169Z,4.30
2019-02-08T01:33:30.440Z,4.30
2019-02-08T01:36:01.686Z,4.30
2019-02-08T01:38:32.945Z,4.30
2019-02-08T01:41:04.290Z,4.30
2019-02-08T01:43:35.557Z,4.30
2019-02-08T01:46:06.936Z,4.30
2019-02-08T01:48:39.141Z,4.30
2019-02-08T01:51:10.427Z,4.30
2019-02-08T01:53:48.505Z,4.30
2019-02-08T01:56:16.205Z,4.30
2019-02-08T01:58:47.578Z,4.40
2019-02-08T03:00:58.822Z,4.70
2019-02-08T03:03:30.054Z,4.80
2019-02-08T03:06:01.293Z,4.80
2019-02-08T03:08:32.643Z,4.80
2019-02-08T03:11:03.855Z,4.80
2019-02-08T03:13:35.099Z,4.90
2019-02-08T03:16:06.417Z,4.90
2019-02-08T03:18:37.633Z,4.90
2019-02-08T03:21:08.882Z,5.00
2019-02-08T03:23:40.121Z,5.00
2019-02-08T03:26:11.557Z,5.10
2019-02-08T03:28:42.793Z,5.00
2019-02-08T03:31:14.034Z,5.10
2019-02-08T03:33:45.257Z,5.10
2019-02-08T03:36:17.492Z,5.10
2019-02-08T03:38:48.726Z,5.10
2019-02-08T03:41:19.965Z,5.10
2019-02-08T03:43:51.351Z,5.10
2019-02-08T03:46:22.625Z,5.10
2019-02-08T03:48:53.918Z,5.10
2019-02-08T03:51:25.100Z,5.10
2019-02-08T03:53:56.341Z,5.10
2019-02-08T03:56:27.680Z,5.10
2019-02-08T03:58:58.879Z,5.10
2019-02-08T04:01:30.120Z,5.10
2019-02-08T04:04:15.823Z,5.20
2019-02-08T04:06:47.166Z,5.20
2019-02-08T04:09:18.397Z,5.20
2019-02-08T04:11:49.768Z,5.30
2019-02-08T04:14:21.119Z,5.30
2019-02-08T04:16:52.400Z,5.30
2019-02-08T04:19:23.752Z,5.30
2019-02-08T04:21:54.993Z,5.30
2019-02-08T04:24:29.981Z,5.30
2019-02-08T04:27:00.084Z,5.30
2019-02-08T04:29:31.425Z,5.30
2019-02-08T04:32:02.624Z,5.30
2019-02-08T04:34:33.870Z,5.20
2019-02-08T04:37:05.103Z,5.20
2019-02-08T04:39:36.409Z,5.20
2019-02-08T04:42:07.644Z,5.20
2019-02-08T04:44:38.859Z,5.20
2019-02-08T04:47:10.112Z,5.20
2019-02-08T04:49:41.352Z,5.20
2019-02-08T04:52:13.018Z,5.20
2019-02-08T04:54:44.422Z,5.20
2019-02-08T04:57:15.631Z,5.20
2019-02-08T04:59:47.872Z,5.20
2019-02-08T05:02:20.106Z,5.30
2019-02-08T05:04:51.345Z,5.30
2019-02-08T05:07:22.683Z,5.20
2019-02-08T05:09:53.930Z,5.30
2019-02-08T05:12:27.398Z,5.30
2019-02-08T05:14:58.740Z,5.30
2019-02-08T05:17:29.977Z,5.30
2019-02-08T05:20:01.634Z,5.30
2019-02-08T05:22:32.868Z,5.30
2019-02-08T05:25:04.986Z,5.30
2019-02-08T05:27:36.220Z,5.30
2019-02-08T05:30:16.587Z,5.30
2019-02-08T05:32:47.978Z,5.30
2019-02-08T05:35:19.413Z,5.30
2019-02-08T05:37:50.665Z,5.30
2019-02-08T05:40:22.141Z,5.30
2019-02-08T05:42:53.487Z,5.30
2019-02-08T05:45:24.928Z,5.30
2019-02-08T05:47:56.238Z,5.30
2019-02-08T05:50:27.944Z,5.30
2019-02-08T05:52:59.284Z,5.30
2019-02-08T05:55:32.270Z,5.30
2019-02-08T05:58:03.618Z,5.30
2019-02-08T06:00:43.913Z,5.30
2019-02-08T06:03:15.242Z,5.30
2019-02-08T06:05:46.833Z,5.30
2019-02-08T06:08:18.148Z,5.30
2019-02-08T06:10:53.754Z,5.30
2019-02-08T06:13:25.036Z,5.30
2019-02-08T06:15:58.346Z,5.30
2019-02-08T06:18:29.578Z,5.30
2019-02-08T06:21:00.775Z,5.30
2019-02-08T06:23:33.168Z,5.30
2019-02-08T06:26:04.478Z,5.40
2019-02-08T06:28:35.714Z,5.40
2019-02-08T06:31:06.959Z,5.40
2019-02-08T06:33:38.248Z,5.40
2019-02-08T06:36:09.480Z,5.40
2019-02-08T06:38:40.824Z,5.40
2019-02-08T06:41:12.184Z,5.40
2019-02-08T06:43:43.584Z,5.40
2019-02-08T06:46:15.048Z,5.40
2019-02-08T06:48:48.005Z,5.40
2019-02-08T06:51:19.243Z,5.40
2019-02-08T06:53:50.512Z,5.40
2019-02-08T06:56:39.009Z,5.40
2019-02-08T06:59:33.899Z,5.40
2019-02-08T07:02:23.126Z,5.40
2019-02-08T07:05:04.760Z,5.40
2019-02-08T07:07:55.289Z,5.40
2019-02-08T07:10:44.035Z,5.40
2019-02-08T07:13:32.377Z,5.40
2019-02-08T07:16:22.761Z,5.40
2019-02-08T07:19:28.112Z,5.40
2019-02-08T07:22:23.941Z,5.40
2019-02-08T07:25:03.724Z,5.40
2019-02-08T07:27:41.157Z,5.40
2019-02-08T07:30:33.038Z,5.40
2019-02-08T07:33:11.278Z,5.40
2019-02-08T07:36:01.700Z,5.40
2019-02-08T07:38:58.134Z,5.40
2019-02-08T07:41:58.261Z,5.40
2019-02-08T07:44:42.896Z,5.40
2019-02-08T07:47:39.878Z,5.40
2019-02-08T07:50:40.402Z,5.40
2019-02-08T07:53:31.832Z,5.40
2019-02-08T07:56:24.577Z,5.50
2019-02-08T07:59:26.720Z,5.50
2019-02-08T08:02:10.047Z,5.50
2019-02-08T08:04:57.720Z,5.50
2019-02-08T08:07:50.912Z,5.50
2019-02-08T08:10:36.389Z,5.50
2019-02-08T08:13:25.125Z,5.50
2019-02-08T08:16:25.593Z,5.60
2019-02-08T08:19:08.314Z,5.60
2019-02-08T08:21:53.952Z,5.60
2019-02-08T08:24:55.272Z,5.60
2019-02-08T08:27:51.904Z,5.70
2019-02-08T08:30:43.421Z,5.70
2019-02-08T08:33:31.920Z,5.70
2019-02-08T08:36:35.474Z,5.80
2019-02-08T08:39:41.593Z,5.80
2019-02-08T08:42:54.141Z,5.90
2019-02-08T08:46:02.285Z,5.90
2019-02-08T08:48:55.648Z,5.90
2019-02-08T08:52:13.381Z,5.90
2019-02-08T08:55:28.797Z,6.00
2019-02-08T08:58:27.739Z,6.00
2019-02-08T09:01:37.255Z,6.00
2019-02-08T09:04:41.913Z,6.10
2019-02-08T09:07:55.150Z,6.10
2019-02-08T09:10:51.445Z,6.20
2019-02-08T09:13:53.792Z,6.20
2019-02-08T09:17:06.175Z,6.20
2019-02-08T09:20:33.227Z,6.30
2019-02-08T09:23:54.107Z,6.30
2019-02-08T09:27:25.024Z,6.40
2019-02-08T09:30:30.886Z,6.40
2019-02-08T09:33:25.181Z,6.50
2019-02-08T09:36:31.966Z,6.60
2019-02-08T09:39:48.782Z,6.60
2019-02-08T09:42:56.641Z,6.70
2019-02-08T09:46:02.988Z,6.70
2019-02-08T09:49:05.678Z,6.80
2019-02-08T09:52:12.240Z,6.80
2019-02-08T09:55:14.608Z,6.80
2019-02-08T09:58:39.529Z,6.80
2019-02-08T10:01:44.697Z,6.90
2019-02-08T10:04:50.629Z,7.00
2019-02-08T10:08:10.129Z,7.00
2019-02-08T10:11:37.248Z,7.10
2019-02-08T10:14:43.316Z,7.10
2019-02-08T10:18:10.588Z,7.10
2019-02-08T10:21:28.128Z,7.10
2019-02-08T10:24:41.513Z,7.20
2019-02-08T10:27:48.461Z,7.30
2019-02-08T10:31:09.370Z,7.30
2019-02-08T10:34:21.489Z,7.30
2019-02-08T10:37:34.668Z,7.30
2019-02-08T10:41:04.308Z,7.40
2019-02-08T10:44:23.798Z,7.40
2019-02-08T10:47:39.087Z,7.40
2019-02-08T10:50:59.980Z,7.40
2019-02-08T10:54:14.780Z,7.40
2019-02-08T10:57:26.581Z,7.50
2019-02-08T11:01:08.822Z,7.50
2019-02-08T11:04:36.293Z,7.50
2019-02-08T11:07:57.133Z,7.50
2019-02-08T11:10:51.895Z,7.60
2019-02-08T11:13:52.702Z,7.60
2019-02-08T11:16:59.451Z,7.60
2019-02-08T11:19:28.863Z,7.70
2019-02-08T11:22:00.097Z,7.70
2019-02-08T11:24:31.345Z,7.70
2019-02-08T11:27:03.340Z,7.80
2019-02-08T11:29:34.591Z,7.80
2019-02-08T11:32:08.116Z,7.80
2019-02-08T11:34:40.924Z,7.80
2019-02-08T11:37:12.629Z,7.90
2019-02-08T11:39:43.972Z,8.00
2019-02-08T11:42:15.304Z,8.10
2019-02-08T11:44:46.553Z,8.20
2019-02-08T11:47:17.803Z,8.30
2019-02-08T11:49:49.073Z,8.40
2019-02-08T11:52:20.324Z,8.40
2019-02-08T11:54:51.701Z,8.50
2019-02-08T11:57:23.154Z,8.50
2019-02-08T11:59:54.378Z,8.60
2019-02-08T12:02:25.796Z,8.70
2019-02-08T12:04:57.085Z,8.70
2019-02-08T12:07:29.320Z,8.80
2019-02-08T12:10:00.566Z,8.80
2019-02-08T12:12:31.777Z,8.90
2019-02-08T12:15:03.217Z,8.90
2019-02-08T12:17:34.609Z,8.90
2019-02-08T12:20:07.224Z,9.00
2019-02-08T12:22:38.461Z,9.10
2019-02-08T12:25:09.837Z,9.00
2019-02-08T12:27:41.267Z,9.10
2019-02-08T12:30:16.986Z,9.20
2019-02-08T12:32:48.226Z,9.20
2019-02-08T12:35:19.449Z,9.30
2019-02-08T12:37:50.685Z,9.20
2019-02-08T12:40:22.340Z,9.30
2019-02-08T12:42:53.589Z,9.30
2019-02-08T12:45:25.368Z,9.40
2019-02-08T12:47:56.640Z,9.40
2019-02-08T12:50:27.929Z,9.40
2019-02-08T12:52:59.205Z,9.40
2019-02-08T12:55:30.616Z,9.50
2019-02-08T12:58:01.864Z,9.50
2019-02-08T13:00:33.189Z,9.50
2019-02-08T13:03:04.540Z,9.50
2019-02-08T13:05:35.943Z,9.50
2019-02-08T13:08:07.297Z,9.50
2019-02-08T13:10:38.844Z,9.60
2019-02-08T13:13:10.090Z,9.60
2019-02-08T13:15:41.351Z,9.70
2019-02-08T13:18:12.569Z,9.70
2019-02-08T13:20:43.797Z,9.70
2019-02-08T13:23:15.053Z,9.60
2019-02-08T13:25:47.520Z,9.60
2019-02-08T13:28:18.789Z,9.60
2019-02-08T13:30:49.994Z,9.60
2019-02-08T13:33:21.254Z,9.50
2019-02-08T13:35:52.895Z,9.50
2019-02-08T13:38:24.124Z,9.50
2019-02-08T13:40:55.370Z,9.50
2019-02-08T13:43:27.204Z,9.40
2019-02-08T13:45:58.459Z,9.40
2019-02-08T13:48:29.720Z,9.40
2019-02-08T13:51:01.216Z,9.40
2019-02-08T13:53:32.498Z,9.30
2019-02-08T13:56:03.750Z,9.30
2019-02-08T13:58:35.092Z,9.30
2019-02-08T14:01:06.490Z,9.30
2019-02-08T14:03:38.126Z,9.30
2019-02-08T14:06:09.377Z,9.30
2019-02-08T14:08:40.585Z,9.30
2019-02-08T14:11:11.824Z,9.30
2019-02-08T14:13:43.170Z,9.30
2019-02-08T14:16:15.409Z,9.30
2019-02-08T14:18:46.969Z,9.20
2019-02-08T14:21:19.066Z,9.20
2019-02-08T14:23:50.304Z,9.20
2019-02-08T14:26:21.559Z,9.20
2019-02-08T14:28:52.988Z,9.20
2019-02-08T14:31:24.240Z,9.20
2019-02-08T14:33:55.491Z,9.20
2019-02-08T14:36:27.037Z,9.20
2019-02-08T14:38:58.297Z,9.20
2019-02-08T14:41:29.536Z,9.20
2019-02-08T14:44:00.786Z,9.10
2019-02-08T14:46:32.034Z,9.20
2019-02-08T14:49:03.268Z,9.10
2019-02-08T14:51:34.511Z,9.10
2019-02-08T14:54:06.123Z,9.10
2019-02-08T14:56:37.402Z,9.10
2019-02-08T14:59:08.834Z,9.00
2019-02-08T15:01:40.128Z,9.00
2019-02-08T15:04:12.225Z,9.00
2019-02-08T15:06:43.448Z,9.00
2019-02-08T15:09:14.720Z,9.00
2019-02-08T15:11:46.256Z,8.90
2019-02-08T15:14:17.496Z,9.00
2019-02-08T15:16:48.782Z,8.90
2019-02-08T15:19:20.041Z,8.90
2019-02-08T15:21:51.232Z,8.90
2019-02-08T15:24:22.488Z,8.90
2019-02-08T15:26:53.724Z,8.80
2019-02-08T15:29:24.961Z,8.80
2019-02-08T15:31:56.789Z,8.80
2019-02-08T15:34:28.050Z,8.70
2019-02-08T15:36:59.327Z,8.70
2019-02-08T15:39:30.538Z,8.70
2019-02-08T15:42:01.769Z,8.70
2019-02-08T15:44:33.105Z,8.60
2019-02-08T15:47:04.637Z,8.60
2019-02-08T15:49:35.897Z,8.60
2019-02-08T15:52:07.493Z,8.60
2019-02-08T15:54:39.281Z,8.50
2019-02-08T15:57:11.373Z,8.50
2019-02-08T15:59:42.625Z,8.50
2019-02-08T16:02:14.149Z,8.40
2019-02-08T16:04:45.388Z,8.40
2019-02-08T16:07:16.640Z,8.40
2019-02-08T16:09:48.191Z,8.40
2019-02-08T16:12:19.420Z,8.40
2019-02-08T16:14:50.877Z,8.40
2019-02-08T16:17:22.236Z,8.30
2019-02-08T16:19:53.476Z,8.30
2019-02-08T16:22:24.688Z,8.30
2019-02-08T16:24:55.921Z,8.30
2019-02-08T16:27:27.154Z,8.20
2019-02-08T16:29:59.802Z,8.20
2019-02-08T16:32:31.150Z,8.20
2019-02-08T16:35:02.391Z,8.10
2019-02-08T16:37:33.637Z,8.10
2019-02-08T16:40:07.252Z,8.10
2019-02-08T16:42:38.504Z,8.10
2019-02-08T16:45:13.185Z,8.10
2019-02-08T16:47:44.517Z,8.10
2019-02-08T16:50:18.632Z,8.00
2019-02-08T16:52:50.212Z,8.00
2019-02-08T16:55:22.491Z,8.00
2019-02-08T16:57:54.018Z,8.00
2019-02-08T17:00:31.575Z,8.00
2019-02-08T17:03:04.524Z,8.00
2019-02-08T17:05:36.278Z,8.00
2019-02-08T17:08:07.611Z,7.90
2019-02-08T17:10:38.998Z,7.90
2019-02-08T17:13:10.497Z,7.90
2019-02-08T17:15:41.698Z,7.90
2019-02-08T17:18:13.044Z,7.90
2019-02-08T17:20:46.543Z,7.90
2019-02-08T17:23:17.769Z,7.90
2019-02-08T17:25:49.010Z,7.90
2019-02-08T17:28:20.262Z,7.90
2019-02-08T17:30:52.807Z,7.80
2019-02-08T17:33:24.048Z,7.80
2019-02-08T17:35:55.321Z,7.80
2019-02-08T17:38:26.572Z,7.80
2019-02-08T17:40:57.815Z,7.70
2019-02-08T17:43:29.032Z,7.70
2019-02-08T17:46:00.268Z,7.70
2019-02-08T17:48:31.472Z,7.80
2019-02-08T17:51:02.720Z,7.80
2019-02-08T17:53:33.998Z,7.80
2019-02-08T17:56:05.603Z,7.70
2019-02-08T17:58:36.925Z,7.70
2019-02-08T18:01:08.710Z,7.60
2019-02-08T18:03:39.927Z,7.60
2019-02-08T18:06:12.549Z,7.60
2019-02-08T18:08:43.825Z,7.60
2019-02-08T18:11:15.064Z,7.50
2019-02-08T18:13:46.524Z,7.50
2019-02-08T18:16:18.273Z,7.40
2019-02-08T18:18:49.676Z,7.40
2019-02-08T18:21:20.920Z,7.30
2019-02-08T18:23:52.198Z,7.30
2019-02-08T18:26:23.374Z,7.30
2019-02-08T18:28:54.633Z,7.20
2019-02-08T18:31:26.708Z,7.20
2019-02-08T18:33:57.910Z,7.20
2019-02-08T18:36:29.164Z,7.20
2019-02-08T18:39:01.140Z,7.10
2019-02-08T18:41:33.233Z,7.10
2019-02-08T18:44:04.673Z,7.10
2019-02-08T18:46:35.916Z,7.10
2019-02-08T18:49:09.077Z,7.10
2019-02-08T18:51:40.312Z,7.20
2019-02-08T18:54:11.556Z,7.20
2019-02-08T18:56:42.796Z,7.10
2019-02-08T18:59:14.873Z,7.00
2019-02-08T19:01:47.149Z,7.00
2019-02-08T19:04:19.394Z,7.00
2019-02-08T19:06:51.164Z,7.00
2019-02-08T19:09:25.026Z,7.00
2019-02-08T19:11:57.171Z,6.90
2019-02-08T19:14:28.411Z,6.90
2019-02-08T19:17:00.318Z,6.90
2019-02-08T19:19:32.774Z,6.90
2019-02-08T19:22:05.094Z,7.00
2019-02-08T19:24:36.609Z,7.00
2019-02-08T19:27:08.865Z,6.90
2019-02-08T19:29:40.114Z,6.90
2019-02-08T19:32:11.534Z,7.00
2019-02-08T19:34:45.374Z,7.00
2019-02-08T19:37:16.761Z,7.10
2019-02-08T19:39:48.061Z,7.10
2019-02-08T19:42:19.740Z,7.10
2019-02-08T19:44:50.985Z,7.10
2019-02-08T19:47:22.266Z,7.10
2019-02-08T19:49:53.569Z,7.00
2019-02-08T19:52:25.160Z,7.10
2019-02-08T19:54:57.296Z,7.20
2019-02-08T19:57:28.892Z,7.10
2019-02-08T20:00:00.218Z,7.10
2019-02-08T20:02:32.234Z,7.10
2019-02-08T20:05:03.577Z,7.10
2019-02-08T20:07:34.831Z,7.00
2019-02-08T20:10:08.809Z,6.90
2019-02-08T20:12:40.099Z,6.90
2019-02-08T20:15:13.764Z,7.00
2019-02-08T20:17:45.012Z,7.00
2019-02-08T20:20:16.583Z,6.90
2019-02-08T20:22:48.344Z,6.90
2019-02-08T20:25:21.608Z,6.90
2019-02-08T20:27:52.845Z,6.90
2019-02-08T20:30:28.598Z,7.00
2019-02-08T20:33:00.186Z,7.00
2019-02-08T20:35:32.965Z,7.00
2019-02-08T20:38:08.083Z,6.90
2019-02-08T20:40:42.596Z,6.90
2019-02-08T20:43:13.841Z,6.90
2019-02-08T20:45:45.405Z,6.90
2019-02-08T20:48:18.852Z,6.90
2019-02-08T20:50:50.370Z,6.90
2019-02-08T20:53:22.222Z,6.90
2019-02-08T20:55:54.120Z,6.90
2019-02-08T20:58:26.962Z,6.90
2019-02-08T21:01:01.171Z,7.00
2019-02-08T21:03:33.003Z,7.10
2019-02-08T21:06:04.413Z,7.10
2019-02-08T21:08:36.629Z,7.10
2019-02-08T21:11:07.883Z,7.10
2019-02-08T21:13:39.121Z,7.10
2019-02-08T21:16:10.528Z,7.20
2019-02-08T21:18:41.746Z,7.20
2019-02-08T21:21:13.092Z,7.10
2019-02-08T21:23:44.347Z,7.20
2019-02-08T21:26:16.402Z,7.10
2019-02-08T21:28:47.640Z,7.20
2019-02-08T21:31:19.006Z,7.20
2019-02-08T21:33:50.532Z,7.20
2019-02-08T21:36:21.784Z,7.20
2019-02-08T21:38:53.037Z,7.20
2019-02-08T21:41:24.394Z,7.20
2019-02-08T21:43:55.604Z,7.20
2019-02-08T21:46:27.029Z,7.20
2019-02-08T21:48:58.405Z,7.30
2019-02-08T21:51:29.862Z,7.20
2019-02-08T21:54:01.336Z,7.20
2019-02-08T21:56:32.770Z,7.10
2019-02-08T21:59:06.156Z,7.10
2019-02-08T22:01:38.676Z,7.10
2019-02-08T22:04:12.129Z,7.10
2019-02-08T22:06:43.425Z,7.10
2019-02-08T22:09:14.988Z,7.00
2019-02-08T22:11:46.250Z,7.00
2019-02-08T22:14:17.876Z,7.00
2019-02-08T22:16:51.944Z,7.00
2019-02-08T22:19:23.373Z,7.00
2019-02-08T22:21:54.655Z,7.00
2019-02-08T22:24:26.007Z,6.90
2019-02-08T22:26:57.468Z,7.00
2019-02-08T22:29:29.554Z,7.00
2019-02-08T22:32:00.806Z,6.90
2019-02-08T22:34:32.205Z,6.90
2019-02-08T22:37:03.575Z,6.90
2019-02-08T22:39:35.256Z,6.90
2019-02-08T22:42:06.520Z,6.90
2019-02-08T22:44:38.792Z,6.90
2019-02-08T22:47:10.036Z,6.90
2019-02-08T22:49:41.297Z,6.90
2019-02-08T22:52:12.630Z,6.90
2019-02-08T22:54:43.965Z,6.90
2019-02-08T22:57:16.230Z,6.90
2019-02-08T22:59:47.425Z,6.80
2019-02-08T23:02:18.672Z,6.80
2019-02-08T23:04:50.061Z,6.80
2019-02-08T23:07:21.341Z,6.90
2019-02-08T23:09:52.696Z,6.90
2019-02-08T23:12:24.085Z,6.90
2019-02-08T23:14:56.456Z,6.90
2019-02-08T23:17:27.735Z,6.90
2019-02-08T23:19:59.034Z,6.90
2019-02-08T23:22:31.334Z,6.90
2019-02-08T23:25:02.644Z,6.90
2019-02-08T23:27:34.054Z,6.90
2019-02-08T23:30:07.509Z,6.90
2019-02-08T23:32:38.926Z,7.00
2019-02-08T23:35:10.661Z,6.90
2019-02-08T23:37:42.516Z,6.90
2019-02-08T23:40:14.751Z,6.90
2019-02-08T23:42:46.202Z,6.90
2019-02-08T23:45:17.551Z,6.90
2019-02-08T23:47:48.913Z,7.00
2019-02-08T23:50:20.720Z,6.90
2019-02-08T23:52:53.703Z,6.90
2019-02-08T23:55:25.321Z,6.90
2019-02-08T23:57:56.635Z,6.90
